sensor_id;sensor_type;location;lat;lon;timestamp;pressure;altitude;pressure_sealevel;temperature;humidity
76603;BME280;65075;48.390;17.598;2023-04-24T00:01:48;98820.78;;;16.52;45.73
76603;BME280;65075;48.390;17.598;2023-04-24T00:04:14;98822.38;;;16.62;44.81
76603;BME280;65075;48.390;17.598;2023-04-24T00:06:42;98757.28;;;16.48;44.04
76603;BME280;65075;48.390;17.598;2023-04-24T00:09:09;98782.75;;;16.02;46.84
76603;BME280;65075;48.390;17.598;2023-04-24T00:11:37;98793.66;;;16.80;45.60
76603;BME280;65075;48.390;17.598;2023-04-24T00:14:03;98782.09;;;16.31;47.32
76603;BME280;65075;48.390;17.598;2023-04-24T00:16:29;98789.03;;;16.54;47.63
76603;BME280;65075;48.390;17.598;2023-04-24T00:18:54;98700.00;;;15.30;49.41
76603;BME280;65075;48.390;17.598;2023-04-24T00:21:20;98730.25;;;15.39;50.16
76603;BME280;65075;48.390;17.598;2023-04-24T00:23:47;98743.75;;;15.83;49.67
76603;BME280;65075;48.390;17.598;2023-04-24T00:26:13;98751.50;;;15.73;48.27
76603;BME280;65075;48.390;17.598;2023-04-24T00:28:39;98707.34;;;15.78;47.82
76603;BME280;65075;48.390;17.598;2023-04-24T00:31:04;98749.84;;;15.37;49.26
76603;BME280;65075;48.390;17.598;2023-04-24T00:33:30;98739.03;;;15.92;47.97
76603;BME280;65075;48.390;17.598;2023-04-24T00:35:55;98754.38;;;16.36;45.80
76603;BME280;65075;48.390;17.598;2023-04-24T00:38:21;98739.72;;;15.72;48.39
76603;BME280;65075;48.390;17.598;2023-04-24T00:40:48;98730.66;;;15.63;47.85
76603;BME280;65075;48.390;17.598;2023-04-24T00:43:15;98743.97;;;16.50;47.00
76603;BME280;65075;48.390;17.598;2023-04-24T00:45:41;98744.41;;;16.06;48.15
76603;BME280;65075;48.390;17.598;2023-04-24T00:48:07;98726.28;;;15.71;48.06
76603;BME280;65075;48.390;17.598;2023-04-24T00:50:33;98727.19;;;16.26;46.92
76603;BME280;65075;48.390;17.598;2023-04-24T00:53:01;98702.97;;;15.60;48.23
76603;BME280;65075;48.390;17.598;2023-04-24T00:55:26;98716.34;;;16.21;48.24
76603;BME280;65075;48.390;17.598;2023-04-24T00:57:52;98710.34;;;15.33;52.29
76603;BME280;65075;48.390;17.598;2023-04-24T01:00:18;98685.88;;;14.50;55.16
76603;BME280;65075;48.390;17.598;2023-04-24T01:02:44;98670.41;;;14.23;56.42
76603;BME280;65075;48.390;17.598;2023-04-24T01:05:14;98687.16;;;14.83;54.97
76603;BME280;65075;48.390;17.598;2023-04-24T01:07:45;98734.53;;;14.97;56.26
76603;BME280;65075;48.390;17.598;2023-04-24T01:10:13;98746.41;;;14.84;55.63
76603;BME280;65075;48.390;17.598;2023-04-24T01:12:39;98728.69;;;14.90;56.23
76603;BME280;65075;48.390;17.598;2023-04-24T01:15:05;98750.00;;;14.93;56.24
76603;BME280;65075;48.390;17.598;2023-04-24T01:17:32;98752.78;;;15.02;56.65
76603;BME280;65075;48.390;17.598;2023-04-24T01:19:59;98712.50;;;14.80;56.30
76603;BME280;65075;48.390;17.598;2023-04-24T01:22:25;98742.84;;;14.75;56.49
76603;BME280;65075;48.390;17.598;2023-04-24T01:24:52;98763.09;;;14.87;56.73
76603;BME280;65075;48.390;17.598;2023-04-24T01:27:19;98735.28;;;14.80;55.34
76603;BME280;65075;48.390;17.598;2023-04-24T01:29:45;98730.34;;;14.60;58.73
76603;BME280;65075;48.390;17.598;2023-04-24T01:32:11;98732.06;;;14.25;61.83
76603;BME280;65075;48.390;17.598;2023-04-24T01:34:38;98734.66;;;14.30;60.25
76603;BME280;65075;48.390;17.598;2023-04-24T01:37:04;98749.66;;;13.80;63.31
76603;BME280;65075;48.390;17.598;2023-04-24T01:39:30;98741.19;;;14.12;62.66
76603;BME280;65075;48.390;17.598;2023-04-24T01:41:56;98729.22;;;14.08;62.05
76603;BME280;65075;48.390;17.598;2023-04-24T01:44:23;98723.00;;;14.78;59.98
76603;BME280;65075;48.390;17.598;2023-04-24T01:46:48;98725.06;;;14.42;60.62
76603;BME280;65075;48.390;17.598;2023-04-24T01:49:14;98724.38;;;15.06;58.55
76603;BME280;65075;48.390;17.598;2023-04-24T01:51:40;98724.38;;;15.06;58.48
76603;BME280;65075;48.390;17.598;2023-04-24T01:54:06;98716.22;;;14.45;60.41
76603;BME280;65075;48.390;17.598;2023-04-24T01:56:33;98698.19;;;14.30;57.76
76603;BME280;65075;48.390;17.598;2023-04-24T01:59:02;98698.19;;;15.09;56.67
76603;BME280;65075;48.390;17.598;2023-04-24T02:01:34;98695.03;;;14.14;58.51
76603;BME280;65075;48.390;17.598;2023-04-24T02:04:01;98676.22;;;14.30;58.77
76603;BME280;65075;48.390;17.598;2023-04-24T02:06:26;98682.94;;;14.38;58.50
76603;BME280;65075;48.390;17.598;2023-04-24T02:08:52;98691.38;;;14.89;57.19
76603;BME280;65075;48.390;17.598;2023-04-24T02:11:18;98685.25;;;14.92;56.35
76603;BME280;65075;48.390;17.598;2023-04-24T02:13:44;98697.72;;;16.18;53.09
76603;BME280;65075;48.390;17.598;2023-04-24T02:16:10;98691.16;;;15.59;53.57
76603;BME280;65075;48.390;17.598;2023-04-24T02:18:35;98664.78;;;15.24;53.68
76603;BME280;65075;48.390;17.598;2023-04-24T02:21:01;98664.44;;;15.94;51.65
76603;BME280;65075;48.390;17.598;2023-04-24T02:23:26;98678.66;;;16.13;51.79
76603;BME280;65075;48.390;17.598;2023-04-24T02:25:53;98672.72;;;16.49;50.91
76603;BME280;65075;48.390;17.598;2023-04-24T02:28:19;98681.41;;;15.27;53.60
76603;BME280;65075;48.390;17.598;2023-04-24T02:30:45;98681.59;;;15.91;52.71
76603;BME280;65075;48.390;17.598;2023-04-24T02:33:11;98684.09;;;16.85;50.45
76603;BME280;65075;48.390;17.598;2023-04-24T02:35:37;98687.09;;;16.08;52.42
76603;BME280;65075;48.390;17.598;2023-04-24T02:38:03;98682.34;;;16.81;49.24
76603;BME280;65075;48.390;17.598;2023-04-24T02:40:29;98678.84;;;15.91;52.00
76603;BME280;65075;48.390;17.598;2023-04-24T02:42:54;98650.19;;;16.09;51.40
76603;BME280;65075;48.390;17.598;2023-04-24T02:45:20;98668.88;;;15.52;53.58
76603;BME280;65075;48.390;17.598;2023-04-24T02:47:46;98658.00;;;15.73;51.85
76603;BME280;65075;48.390;17.598;2023-04-24T02:50:11;98674.41;;;16.24;50.87
76603;BME280;65075;48.390;17.598;2023-04-24T02:52:37;98658.47;;;17.14;48.77
76603;BME280;65075;48.390;17.598;2023-04-24T02:55:03;98608.47;;;16.36;49.73
76603;BME280;65075;48.390;17.598;2023-04-24T02:57:29;98646.69;;;16.38;50.38
76603;BME280;65075;48.390;17.598;2023-04-24T02:59:55;98653.47;;;15.68;51.98
76603;BME280;65075;48.390;17.598;2023-04-24T03:02:20;98670.13;;;15.46;53.52
76603;BME280;65075;48.390;17.598;2023-04-24T03:04:46;98640.28;;;16.92;49.13
76603;BME280;65075;48.390;17.598;2023-04-24T03:07:13;98663.63;;;16.95;48.81
76603;BME280;65075;48.390;17.598;2023-04-24T03:09:40;98660.88;;;16.95;49.13
76603;BME280;65075;48.390;17.598;2023-04-24T03:12:06;98680.19;;;16.86;48.99
76603;BME280;65075;48.390;17.598;2023-04-24T03:14:32;98652.09;;;16.93;49.08
76603;BME280;65075;48.390;17.598;2023-04-24T03:16:57;98643.56;;;17.56;47.59
76603;BME280;65075;48.390;17.598;2023-04-24T03:19:23;98641.28;;;16.50;50.17
76603;BME280;65075;48.390;17.598;2023-04-24T03:21:49;98659.53;;;16.17;51.89
76603;BME280;65075;48.390;17.598;2023-04-24T03:24:15;98607.44;;;16.12;50.78
76603;BME280;65075;48.390;17.598;2023-04-24T03:26:41;98633.34;;;16.02;51.46
76603;BME280;65075;48.390;17.598;2023-04-24T03:29:07;98653.28;;;15.82;52.61
76603;BME280;65075;48.390;17.598;2023-04-24T03:31:32;98626.28;;;14.98;53.21
76603;BME280;65075;48.390;17.598;2023-04-24T03:33:58;98636.66;;;15.53;53.20
76603;BME280;65075;48.390;17.598;2023-04-24T03:36:23;98658.13;;;15.33;54.55
76603;BME280;65075;48.390;17.598;2023-04-24T03:38:49;98646.44;;;14.85;55.15
76603;BME280;65075;48.390;17.598;2023-04-24T03:41:14;98640.78;;;14.90;54.17
76603;BME280;65075;48.390;17.598;2023-04-24T03:43:40;98615.13;;;15.12;52.31
76603;BME280;65075;48.390;17.598;2023-04-24T03:46:06;98633.66;;;14.72;54.45
76603;BME280;65075;48.390;17.598;2023-04-24T03:48:32;98611.50;;;14.68;53.84
76603;BME280;65075;48.390;17.598;2023-04-24T03:50:57;98557.09;;;14.96;52.69
76603;BME280;65075;48.390;17.598;2023-04-24T03:53:23;98596.34;;;14.88;52.65
76603;BME280;65075;48.390;17.598;2023-04-24T03:55:49;98597.47;;;14.87;52.86
76603;BME280;65075;48.390;17.598;2023-04-24T03:58:14;98577.03;;;14.37;53.99
76603;BME280;65075;48.390;17.598;2023-04-24T04:00:40;98595.22;;;14.72;52.96
76603;BME280;65075;48.390;17.598;2023-04-24T04:03:06;98583.28;;;15.28;50.79
76603;BME280;65075;48.390;17.598;2023-04-24T04:05:31;98643.75;;;15.36;51.81
76603;BME280;65075;48.390;17.598;2023-04-24T04:07:57;98657.97;;;15.21;52.77
76603;BME280;65075;48.390;17.598;2023-04-24T04:10:23;98642.47;;;15.34;51.01
76603;BME280;65075;48.390;17.598;2023-04-24T04:12:48;98645.34;;;15.03;52.10
76603;BME280;65075;48.390;17.598;2023-04-24T04:15:14;98650.91;;;15.55;50.69
76603;BME280;65075;48.390;17.598;2023-04-24T04:17:40;98620.69;;;14.55;52.57
76603;BME280;65075;48.390;17.598;2023-04-24T04:20:06;98617.72;;;15.25;51.22
76603;BME280;65075;48.390;17.598;2023-04-24T04:22:34;98659.16;;;15.55;51.10
76603;BME280;65075;48.390;17.598;2023-04-24T04:25:00;98650.84;;;15.12;52.54
76603;BME280;65075;48.390;17.598;2023-04-24T04:27:25;98653.63;;;15.46;51.35
76603;BME280;65075;48.390;17.598;2023-04-24T04:29:52;98628.53;;;14.96;52.11
76603;BME280;65075;48.390;17.598;2023-04-24T04:32:18;98583.50;;;14.41;52.94
76603;BME280;65075;48.390;17.598;2023-04-24T04:34:43;98649.84;;;14.99;52.05
76603;BME280;65075;48.390;17.598;2023-04-24T04:37:11;98649.94;;;15.51;50.12
76603;BME280;65075;48.390;17.598;2023-04-24T04:39:38;98637.28;;;15.15;51.24
76603;BME280;65075;48.390;17.598;2023-04-24T04:42:03;98643.56;;;15.16;51.76
76603;BME280;65075;48.390;17.598;2023-04-24T04:44:29;98644.25;;;15.47;51.84
76603;BME280;65075;48.390;17.598;2023-04-24T04:46:56;98609.28;;;14.96;51.76
76603;BME280;65075;48.390;17.598;2023-04-24T04:49:22;98635.28;;;16.01;49.65
76603;BME280;65075;48.390;17.598;2023-04-24T04:51:49;98642.16;;;15.53;49.85
76603;BME280;65075;48.390;17.598;2023-04-24T04:54:16;98625.31;;;15.28;50.73
76603;BME280;65075;48.390;17.598;2023-04-24T04:56:42;98618.16;;;14.93;51.97
76603;BME280;65075;48.390;17.598;2023-04-24T04:59:07;98604.09;;;14.69;52.67
76603;BME280;65075;48.390;17.598;2023-04-24T05:01:33;98646.03;;;15.86;50.49
76603;BME280;65075;48.390;17.598;2023-04-24T05:03:58;98643.75;;;15.88;50.37
76603;BME280;65075;48.390;17.598;2023-04-24T05:06:24;98640.56;;;15.60;51.10
76603;BME280;65075;48.390;17.598;2023-04-24T05:08:50;98640.69;;;15.89;50.61
76603;BME280;65075;48.390;17.598;2023-04-24T05:11:19;98641.97;;;15.15;52.14
76603;BME280;65075;48.390;17.598;2023-04-24T05:13:44;98613.34;;;15.24;51.69
76603;BME280;65075;48.390;17.598;2023-04-24T05:16:10;98632.59;;;15.67;51.23
76603;BME280;65075;48.390;17.598;2023-04-24T05:18:35;98609.81;;;15.32;50.79
76603;BME280;65075;48.390;17.598;2023-04-24T05:21:01;98583.63;;;15.26;51.14
76603;BME280;65075;48.390;17.598;2023-04-24T05:23:27;98614.66;;;15.53;50.50
76603;BME280;65075;48.390;17.598;2023-04-24T05:25:52;98582.44;;;15.79;49.41
76603;BME280;65075;48.390;17.598;2023-04-24T05:28:18;98569.06;;;15.00;51.42
76603;BME280;65075;48.390;17.598;2023-04-24T05:30:43;98618.03;;;14.89;52.58
76603;BME280;65075;48.390;17.598;2023-04-24T05:33:09;98623.22;;;15.25;52.24
76603;BME280;65075;48.390;17.598;2023-04-24T05:35:35;98636.09;;;14.82;53.82
76603;BME280;65075;48.390;17.598;2023-04-24T05:38:00;98634.56;;;16.30;50.09
76603;BME280;65075;48.390;17.598;2023-04-24T05:40:26;98643.47;;;15.55;52.26
76603;BME280;65075;48.390;17.598;2023-04-24T05:42:52;98639.16;;;16.09;50.63
76603;BME280;65075;48.390;17.598;2023-04-24T05:45:17;98618.94;;;16.05;51.33
76603;BME280;65075;48.390;17.598;2023-04-24T05:47:43;98610.13;;;15.57;51.94
76603;BME280;65075;48.390;17.598;2023-04-24T05:50:10;98620.78;;;15.67;51.37
76603;BME280;65075;48.390;17.598;2023-04-24T05:52:35;98621.47;;;15.55;51.70
76603;BME280;65075;48.390;17.598;2023-04-24T05:55:01;98643.06;;;16.08;50.53
76603;BME280;65075;48.390;17.598;2023-04-24T05:57:28;98629.84;;;15.76;51.80
76603;BME280;65075;48.390;17.598;2023-04-24T05:59:54;98626.53;;;16.08;50.50
76603;BME280;65075;48.390;17.598;2023-04-24T06:02:19;98657.75;;;16.21;51.05
76603;BME280;65075;48.390;17.598;2023-04-24T06:04:45;98653.41;;;16.11;51.59
76603;BME280;65075;48.390;17.598;2023-04-24T06:07:11;98654.63;;;16.31;50.81
76603;BME280;65075;48.390;17.598;2023-04-24T06:09:36;98669.78;;;16.63;49.70
76603;BME280;65075;48.390;17.598;2023-04-24T06:12:02;98646.13;;;16.62;49.87
76603;BME280;65075;48.390;17.598;2023-04-24T06:14:28;98654.09;;;15.91;51.73
76603;BME280;65075;48.390;17.598;2023-04-24T06:16:54;98649.72;;;15.90;52.15
76603;BME280;65075;48.390;17.598;2023-04-24T06:19:20;98629.00;;;16.39;50.16
76603;BME280;65075;48.390;17.598;2023-04-24T06:21:45;98631.72;;;16.01;51.15
76603;BME280;65075;48.390;17.598;2023-04-24T06:24:14;98641.53;;;16.28;51.20
76603;BME280;65075;48.390;17.598;2023-04-24T06:26:42;98603.84;;;15.48;52.27
76603;BME280;65075;48.390;17.598;2023-04-24T06:29:08;98650.97;;;16.10;51.93
76603;BME280;65075;48.390;17.598;2023-04-24T06:31:33;98646.03;;;15.86;52.31
76603;BME280;65075;48.390;17.598;2023-04-24T06:34:03;98657.16;;;15.12;54.09
76603;BME280;65075;48.390;17.598;2023-04-24T06:36:29;98647.38;;;16.26;52.38
76603;BME280;65075;48.390;17.598;2023-04-24T06:38:56;98624.22;;;15.72;52.89
76603;BME280;65075;48.390;17.598;2023-04-24T06:41:22;98639.34;;;16.50;51.33
76603;BME280;65075;48.390;17.598;2023-04-24T06:43:48;98618.81;;;15.93;51.88
76603;BME280;65075;48.390;17.598;2023-04-24T06:46:13;98647.44;;;16.00;52.75
76603;BME280;65075;48.390;17.598;2023-04-24T06:48:39;98663.31;;;16.03;52.31
76603;BME280;65075;48.390;17.598;2023-04-24T06:51:05;98641.13;;;16.00;52.27
76603;BME280;65075;48.390;17.598;2023-04-24T06:53:31;98626.13;;;15.29;54.41
76603;BME280;65075;48.390;17.598;2023-04-24T06:55:56;98653.03;;;16.21;51.94
76603;BME280;65075;48.390;17.598;2023-04-24T06:58:22;98628.16;;;16.18;52.26
76603;BME280;65075;48.390;17.598;2023-04-24T07:00:48;98624.09;;;16.62;51.75
76603;BME280;65075;48.390;17.598;2023-04-24T07:03:13;98651.16;;;17.39;49.82
76603;BME280;65075;48.390;17.598;2023-04-24T07:05:39;98631.19;;;17.62;49.14
76603;BME280;65075;48.390;17.598;2023-04-24T07:08:05;98646.13;;;16.62;51.47
76603;BME280;65075;48.390;17.598;2023-04-24T07:10:32;98628.56;;;17.66;49.37
76603;BME280;65075;48.390;17.598;2023-04-24T07:12:59;98648.19;;;17.85;48.85
76603;BME280;65075;48.390;17.598;2023-04-24T07:15:24;98652.69;;;17.28;49.81
76603;BME280;65075;48.390;17.598;2023-04-24T07:17:50;98667.50;;;17.23;49.32
76603;BME280;65075;48.390;17.598;2023-04-24T07:20:16;98652.84;;;17.52;49.01
76603;BME280;65075;48.390;17.598;2023-04-24T07:22:41;98654.25;;;17.37;49.35
76603;BME280;65075;48.390;17.598;2023-04-24T07:25:07;98649.94;;;17.28;49.52
76603;BME280;65075;48.390;17.598;2023-04-24T07:27:34;98655.75;;;18.21;48.05
76603;BME280;65075;48.390;17.598;2023-04-24T07:30:03;98638.41;;;17.88;49.12
76603;BME280;65075;48.390;17.598;2023-04-24T07:32:29;98655.41;;;17.78;48.32
76603;BME280;65075;48.390;17.598;2023-04-24T07:34:55;98658.81;;;16.83;51.01
76603;BME280;65075;48.390;17.598;2023-04-24T07:37:21;98655.75;;;17.55;49.23
76603;BME280;65075;48.390;17.598;2023-04-24T07:39:47;98652.63;;;18.55;47.29
76603;BME280;65075;48.390;17.598;2023-04-24T07:42:12;98649.28;;;18.50;47.90
76603;BME280;65075;48.390;17.598;2023-04-24T07:44:38;98650.38;;;19.85;44.63
76603;BME280;65075;48.390;17.598;2023-04-24T07:47:07;98653.50;;;22.13;39.48
76603;BME280;65075;48.390;17.598;2023-04-24T07:49:33;98660.47;;;23.40;37.37
76603;BME280;65075;48.390;17.598;2023-04-24T07:52:00;98646.72;;;20.25;44.62
76603;BME280;65075;48.390;17.598;2023-04-24T07:54:28;98632.03;;;21.18;40.82
76603;BME280;65075;48.390;17.598;2023-04-24T07:56:54;98657.28;;;21.86;39.96
76603;BME280;65075;48.390;17.598;2023-04-24T07:59:20;98669.34;;;21.21;40.76
76603;BME280;65075;48.390;17.598;2023-04-24T08:01:45;98655.50;;;22.58;39.15
76603;BME280;65075;48.390;17.598;2023-04-24T08:04:11;98639.09;;;23.48;36.87
76603;BME280;65075;48.390;17.598;2023-04-24T08:06:37;98662.78;;;22.86;37.41
76603;BME280;65075;48.390;17.598;2023-04-24T08:09:02;98559.25;;;21.63;39.38
76603;BME280;65075;48.390;17.598;2023-04-24T08:11:28;98624.41;;;23.24;36.88
76603;BME280;65075;48.390;17.598;2023-04-24T08:13:54;98610.69;;;24.38;33.54
76603;BME280;65075;48.390;17.598;2023-04-24T08:16:20;98634.91;;;22.17;37.09
76603;BME280;65075;48.390;17.598;2023-04-24T08:18:46;98658.91;;;20.67;41.68
76603;BME280;65075;48.390;17.598;2023-04-24T08:21:11;98644.25;;;20.82;40.88
76603;BME280;65075;48.390;17.598;2023-04-24T08:23:42;98651.66;;;19.24;46.48
76603;BME280;65075;48.390;17.598;2023-04-24T08:26:08;98657.03;;;20.12;44.27
76603;BME280;65075;48.390;17.598;2023-04-24T08:28:33;98627.00;;;20.58;41.82
76603;BME280;65075;48.390;17.598;2023-04-24T08:30:59;98608.03;;;19.05;44.19
76603;BME280;65075;48.390;17.598;2023-04-24T08:33:25;98656.41;;;19.75;42.97
76603;BME280;65075;48.390;17.598;2023-04-24T08:35:50;98654.66;;;21.55;40.31
76603;BME280;65075;48.390;17.598;2023-04-24T08:38:16;98631.56;;;20.50;41.51
76603;BME280;65075;48.390;17.598;2023-04-24T08:40:42;98661.06;;;20.58;42.30
76603;BME280;65075;48.390;17.598;2023-04-24T08:43:09;98641.09;;;20.99;41.50
76603;BME280;65075;48.390;17.598;2023-04-24T08:45:36;98669.84;;;20.60;42.53
76603;BME280;65075;48.390;17.598;2023-04-24T08:48:02;98669.38;;;20.42;43.31
76603;BME280;65075;48.390;17.598;2023-04-24T08:50:28;98659.59;;;18.28;48.60
76603;BME280;65075;48.390;17.598;2023-04-24T08:52:54;98627.91;;;19.47;45.13
76603;BME280;65075;48.390;17.598;2023-04-24T08:55:20;98650.22;;;18.09;49.45
76603;BME280;65075;48.390;17.598;2023-04-24T08:57:52;98647.25;;;18.14;50.32
76603;BME280;65075;48.390;17.598;2023-04-24T09:00:20;98633.81;;;19.46;45.91
76603;BME280;65075;48.390;17.598;2023-04-24T09:02:48;98661.38;;;18.94;48.12
76603;BME280;65075;48.390;17.598;2023-04-24T09:05:17;98659.06;;;19.32;47.13
76603;BME280;65075;48.390;17.598;2023-04-24T09:07:49;98666.28;;;19.88;47.84
76603;BME280;65075;48.390;17.598;2023-04-24T09:10:15;98654.09;;;21.65;41.13
76603;BME280;65075;48.390;17.598;2023-04-24T09:12:41;98668.00;;;20.83;44.06
76603;BME280;65075;48.390;17.598;2023-04-24T09:15:08;98672.56;;;20.29;45.98
76603;BME280;65075;48.390;17.598;2023-04-24T09:17:34;98668.94;;;20.56;42.89
76603;BME280;65075;48.390;17.598;2023-04-24T09:20:00;98651.56;;;19.72;47.50
76603;BME280;65075;48.390;17.598;2023-04-24T09:22:30;98668.19;;;20.90;43.66
76603;BME280;65075;48.390;17.598;2023-04-24T09:25:06;98637.78;;;21.09;42.94
76603;BME280;65075;48.390;17.598;2023-04-24T09:27:35;98650.16;;;21.66;41.46
76603;BME280;65075;48.390;17.598;2023-04-24T09:30:03;98667.31;;;21.72;41.75
76603;BME280;65075;48.390;17.598;2023-04-24T09:32:29;98670.88;;;21.53;43.97
76603;BME280;65075;48.390;17.598;2023-04-24T09:35:12;98672.31;;;20.34;46.77
76603;BME280;65075;48.390;17.598;2023-04-24T09:37:41;98668.94;;;21.38;43.30
76603;BME280;65075;48.390;17.598;2023-04-24T09:40:15;98679.06;;;21.46;42.72
76603;BME280;65075;48.390;17.598;2023-04-24T09:42:55;98670.06;;;21.02;42.85
76603;BME280;65075;48.390;17.598;2023-04-24T09:45:22;98616.19;;;20.68;43.23
76603;BME280;65075;48.390;17.598;2023-04-24T09:47:52;98644.09;;;19.09;48.77
76603;BME280;65075;48.390;17.598;2023-04-24T09:50:21;98664.34;;;19.49;46.52
76603;BME280;65075;48.390;17.598;2023-04-24T09:52:59;98648.03;;;19.87;45.28
76603;BME280;65075;48.390;17.598;2023-04-24T09:55:27;98659.91;;;20.16;45.49
76603;BME280;65075;48.390;17.598;2023-04-24T09:57:56;98659.06;;;19.32;46.47
76603;BME280;65075;48.390;17.598;2023-04-24T10:00:30;98662.47;;;20.52;44.29
76603;BME280;65075;48.390;17.598;2023-04-24T10:02:58;98650.75;;;19.99;44.08
76603;BME280;65075;48.390;17.598;2023-04-24T10:05:27;98661.31;;;20.84;43.91
76603;BME280;65075;48.390;17.598;2023-04-24T10:08:13;98627.16;;;19.90;44.55
76603;BME280;65075;48.390;17.598;2023-04-24T10:10:44;98669.66;;;19.42;46.57
76603;BME280;65075;48.390;17.598;2023-04-24T10:13:12;98656.66;;;20.26;43.34
76603;BME280;65075;48.390;17.598;2023-04-24T10:15:39;98636.22;;;18.38;50.25
76603;BME280;65075;48.390;17.598;2023-04-24T10:18:07;98658.38;;;19.23;47.43
76603;BME280;65075;48.390;17.598;2023-04-24T10:20:34;98637.78;;;18.60;50.97
76603;BME280;65075;48.390;17.598;2023-04-24T10:23:00;98659.72;;;19.41;49.90
76603;BME280;65075;48.390;17.598;2023-04-24T10:25:28;98663.91;;;18.62;51.60
76603;BME280;65075;48.390;17.598;2023-04-24T10:27:56;98670.31;;;19.27;50.28
76603;BME280;65075;48.390;17.598;2023-04-24T10:30:33;98661.75;;;18.23;52.65
76603;BME280;65075;48.390;17.598;2023-04-24T10:33:04;98668.06;;;18.93;52.03
76603;BME280;65075;48.390;17.598;2023-04-24T10:35:36;98661.50;;;18.16;52.74
76603;BME280;65075;48.390;17.598;2023-04-24T10:38:08;98673.25;;;17.30;54.63
76603;BME280;65075;48.390;17.598;2023-04-24T10:40:36;98668.31;;;17.86;53.69
76603;BME280;65075;48.390;17.598;2023-04-24T10:43:06;98678.34;;;17.69;55.21
76603;BME280;65075;48.390;17.598;2023-04-24T10:45:33;98671.84;;;17.24;55.61
76603;BME280;65075;48.390;17.598;2023-04-24T10:48:09;98679.03;;;17.16;55.97
76603;BME280;65075;48.390;17.598;2023-04-24T10:50:43;98682.41;;;17.22;55.81
76603;BME280;65075;48.390;17.598;2023-04-24T10:53:14;98670.78;;;17.99;54.21
76603;BME280;65075;48.390;17.598;2023-04-24T10:55:46;98672.31;;;17.05;56.22
76603;BME280;65075;48.390;17.598;2023-04-24T10:58:13;98681.19;;;17.52;55.43
76603;BME280;65075;48.390;17.598;2023-04-24T11:00:41;98653.03;;;17.67;55.25
76603;BME280;65075;48.390;17.598;2023-04-24T11:03:33;98665.84;;;16.72;57.65
76603;BME280;65075;48.390;17.598;2023-04-24T11:06:06;98680.97;;;17.66;55.57
76603;BME280;65075;48.390;17.598;2023-04-24T11:08:43;98655.66;;;17.64;55.71
76603;BME280;65075;48.390;17.598;2023-04-24T11:11:12;98670.25;;;18.87;52.20
76603;BME280;65075;48.390;17.598;2023-04-24T11:16:35;98660.78;;;17.74;55.09
76603;BME280;65075;48.390;17.598;2023-04-24T11:19:25;98684.72;;;17.41;56.18
76603;BME280;65075;48.390;17.598;2023-04-24T11:22:01;98686.41;;;17.04;56.61
76603;BME280;65075;48.390;17.598;2023-04-24T11:24:48;98684.72;;;17.41;56.68
76603;BME280;65075;48.390;17.598;2023-04-24T11:27:21;98684.97;;;17.48;56.83
76603;BME280;65075;48.390;17.598;2023-04-24T11:35:18;98694.19;;;17.02;59.44
76603;BME280;65075;48.390;17.598;2023-04-24T11:37:47;98694.22;;;17.72;56.90
76603;BME280;65075;48.390;17.598;2023-04-24T11:40:17;98691.22;;;17.65;57.83
76603;BME280;65075;48.390;17.598;2023-04-24T11:42:50;98697.66;;;17.69;58.42
76603;BME280;65075;48.390;17.598;2023-04-24T11:45:29;98691.97;;;18.52;55.04
76603;BME280;65075;48.390;17.598;2023-04-24T11:47:55;98691.81;;;18.04;55.51
76603;BME280;65075;48.390;17.598;2023-04-24T11:50:23;98692.38;;;17.35;58.14
76603;BME280;65075;48.390;17.598;2023-04-24T11:52:51;98697.69;;;16.35;62.47
76603;BME280;65075;48.390;17.598;2023-04-24T11:57:46;98639.84;;;17.11;58.44
76603;BME280;65075;48.390;17.598;2023-04-24T12:00:18;98670.63;;;17.13;60.00
76603;BME280;65075;48.390;17.598;2023-04-24T12:02:45;98696.75;;;17.07;60.30
76603;BME280;65075;48.390;17.598;2023-04-24T12:05:24;98723.66;;;17.10;60.47
76603;BME280;65075;48.390;17.598;2023-04-24T12:07:51;98700.56;;;16.47;62.82
76603;BME280;65075;48.390;17.598;2023-04-24T12:10:25;98706.44;;;16.37;62.89
76603;BME280;65075;48.390;17.598;2023-04-24T12:12:51;98710.13;;;17.26;60.05
76603;BME280;65075;48.390;17.598;2023-04-24T12:15:19;98713.31;;;16.78;61.73
76603;BME280;65075;48.390;17.598;2023-04-24T12:17:45;98705.25;;;17.72;59.69
76603;BME280;65075;48.390;17.598;2023-04-24T12:20:13;98697.19;;;17.67;58.89
76603;BME280;65075;48.390;17.598;2023-04-24T12:25:10;98719.28;;;17.38;58.36
76603;BME280;65075;48.390;17.598;2023-04-24T12:27:36;98714.19;;;17.49;59.06
76603;BME280;65075;48.390;17.598;2023-04-24T12:30:04;98716.72;;;17.33;59.47
76603;BME280;65075;48.390;17.598;2023-04-24T12:32:31;98721.34;;;17.70;58.19
76603;BME280;65075;48.390;17.598;2023-04-24T12:34:57;98705.19;;;15.23;65.22
76603;BME280;65075;48.390;17.598;2023-04-24T12:37:25;98699.59;;;15.80;63.34
76603;BME280;65075;48.390;17.598;2023-04-24T12:40:07;98709.75;;;15.88;63.10
76603;BME280;65075;48.390;17.598;2023-04-24T12:42:34;98690.69;;;15.83;62.60
76603;BME280;65075;48.390;17.598;2023-04-24T12:45:06;98714.06;;;15.12;64.73
76603;BME280;65075;48.390;17.598;2023-04-24T12:47:33;98708.78;;;15.41;63.66
76603;BME280;65075;48.390;17.598;2023-04-24T12:49:59;98716.38;;;15.78;62.01
76603;BME280;65075;48.390;17.598;2023-04-24T12:52:27;98712.88;;;16.96;58.80
76603;BME280;65075;48.390;17.598;2023-04-24T12:54:56;98731.69;;;16.48;59.82
76603;BME280;65075;48.390;17.598;2023-04-24T12:57:23;98695.19;;;15.96;60.54
76603;BME280;65075;48.390;17.598;2023-04-24T12:59:49;98707.75;;;15.11;63.33
76603;BME280;65075;48.390;17.598;2023-04-24T13:02:15;98701.03;;;15.69;61.65
76603;BME280;65075;48.390;17.598;2023-04-24T13:04:46;98661.72;;;15.60;61.73